• Join FlightAware (Why Join?)
  • Login
  • US Flag 
04:22PM EST


 

Airport Tracker/Info


-or-


 

Live Flight TrackerFlight Track Log ✈ N333RL ✈ 07-May-2013 ✈ KDET - KMDW

Flight Track Log - Related Links

Times and Time Zones

All times are in EDT time to prevent confusion due to time zone crossing. See the N333RL flight status page for this flight to view local times or setup timezone preferences in your user account.

Time Position Orientation Groundspeed Altitude Reporting Facility
EDT Latitude Longitude Course Direction KTS MPH feet Rate Location/Type
09:36AM 42.3931 -82.9983 154° Southeast 191 220 1,400  Level Cleveland Center
09:38AM 42.3253 -82.9536 154° Southeast 256 295 4,800 2,940 Climbing Cleveland Center
09:39AM 42.2961 -83.0506 248° West 310 357 8,300 3,420 Climbing Cleveland Center
09:39AM 42.2919 -83.1431 267° West 303 349 11,100 2,760 Climbing Cleveland Center
09:40AM 42.2869 -83.1822 260° West 321 369 11,900 1,020 Climbing Cleveland Center
09:41AM 42.2817 -83.3225 267° West 351 404 12,600 480 Climbing Cleveland Center
09:42AM 42.2764 -83.4514 267° West 346 398 12,900 540 Climbing Cleveland Center
09:43AM 42.2753 -83.5747 269° West 340 391 13,700 960 Climbing Cleveland Center
09:44AM 42.2739 -83.7094 269° West 345 397 14,900 1,320 Climbing Cleveland Center
09:45AM 42.2700 -83.8467 268° West 360 414 16,400 1,320 Climbing Cleveland Center
09:46AM 42.2667 -83.9644 268° West 375 432 17,600 1,200 Climbing Cleveland Center
09:47AM 42.2633 -84.1439 269° West 393 452 18,900 900 Climbing Cleveland Center
09:48AM 42.2606 -84.2981 269° West 405 466 19,500 1,020 Climbing Cleveland Center
09:49AM 42.2575 -84.4550 269° West 410 472 21,000 1,200 Climbing Cleveland Center
09:50AM 42.2458 -84.6114 264° West 423 487 22,000 360 Climbing Cleveland Center
09:52AM 42.2206 -84.8689 263° West 427 491 22,000  Level Chicago Center
09:53AM 42.1439 -84.9856 228° Southwest 421 484 22,000  Level Chicago Center
09:54AM 42.0503 -85.0789 217° Southwest 420 483 22,000  Level Chicago Center
09:55AM 41.9617 -85.1667 216° Southwest 422 486 22,000  Level Chicago Center
09:56AM 41.8503 -85.2797 217° Southwest 420 483 22,000  Level Chicago Center
09:57AM 41.7569 -85.3739 217° Southwest 422 486 22,000  Level Chicago Center
09:58AM 41.6547 -85.4747 216° Southwest 422 486 22,000  Level Chicago Center
09:59AM 41.5847 -85.5681 225° Southwest 427 491 22,000 -720 Level Chicago Center
10:00AM 41.5269 -85.7358 245° Southwest 416 479 20,600 -1,800 Descending Chicago Center
10:01AM 41.5200 -85.8842 266° West 398 458 18,400 -2,280 Descending Chicago Center
10:02AM 41.5222 -86.0256 271° West 384 442 15,900 -2,220 Descending Chicago Center
10:03AM 41.5231 -86.1642 271° West 375 432 13,900 -1,920 Descending Chicago Center
10:04AM 41.5225 -86.3019 270° West 372 428 12,000 -1,800 Descending Chicago Center
10:05AM 41.5222 -86.4408 270° West 373 429 10,200 -1,020 Descending Chicago Center
10:06AM 41.5211 -86.6031 270° West 364 419 10,000 -120 Descending Chicago Center
10:07AM 41.5206 -86.7303 270° West 366 421 10,000  Level Chicago Center
10:08AM 41.5178 -86.8592 268° West 348 400 10,000 -960 Level Chicago Center
10:09AM 41.5172 -86.9917 270° West 301 346 8,100 -1,620 Descending Chicago Center
10:10AM 41.5158 -87.0986 269° West 292 336 6,700 -1,260 Descending Chicago Center
10:11AM 41.5167 -87.1833 271° West 290 334 6,000 -420 Descending Chicago TRACON
10:12AM 41.5333 -87.2833 283° West 281 323 6,000  Level Chicago TRACON
10:13AM 41.5500 -87.3833 283° West 286 329 6,000  Level Chicago TRACON
10:13AM 41.5522 -87.4083 277° West 285 328 6,000 -720 Level Chicago Center
10:14AM 41.5769 -87.5278 286° West 282 325 5,000 -1,020 Descending Chicago Center
10:15AM 41.6169 -87.6147 302° West 277 319 4,000 -1,080 Descending Chicago Center
10:16AM 41.6333 -87.6500 302° West 279 321 3,500 -780 Descending Chicago TRACON
10:17AM 41.6500 -87.7500 283° West 227 261 2,900 -540 Descending Chicago TRACON
10:18AM 41.6833 -87.8167 304° West 207 238 2,500 -300 Descending Chicago TRACON
10:19AM 41.7167 -87.8500 323° Northwest 192 221 2,400 -420 Descending Chicago TRACON
10:20AM 41.7333 -87.8167 56° Northeast 169 194 1,800 -780 Descending Chicago TRACON
10:21AM 41.7667 -87.7667 48° Northeast 132 152 800 -840 Descending Chicago TRACON
10:23AM 41.7833 -87.7500 331° Northwest  Level FlightAware Approximate